sensor_id;sensor_type;location;lat;lon;timestamp;P1;durP1;ratioP1;P2;durP2;ratioP2
7761;SDS011;3925;48.636;9.516;2022-07-29T00:01:58;7.00;;;6.40;;
7761;SDS011;3925;48.636;9.516;2022-07-29T00:04:25;6.43;;;6.00;;
7761;SDS011;3925;48.636;9.516;2022-07-29T00:06:51;5.90;;;5.30;;
7761;SDS011;3925;48.636;9.516;2022-07-29T00:09:20;5.77;;;5.30;;
7761;SDS011;3925;48.636;9.516;2022-07-29T00:11:47;6.90;;;6.30;;
7761;SDS011;3925;48.636;9.516;2022-07-29T00:14:14;7.27;;;6.67;;
7761;SDS011;3925;48.636;9.516;2022-07-29T00:16:41;7.43;;;6.90;;
7761;SDS011;3925;48.636;9.516;2022-07-29T00:19:08;6.20;;;5.70;;
7761;SDS011;3925;48.636;9.516;2022-07-29T00:21:35;7.37;;;6.47;;
7761;SDS011;3925;48.636;9.516;2022-07-29T00:24:02;6.40;;;5.90;;
7761;SDS011;3925;48.636;9.516;2022-07-29T00:26:30;7.27;;;6.67;;
7761;SDS011;3925;48.636;9.516;2022-07-29T00:28:58;6.70;;;6.20;;
7761;SDS011;3925;48.636;9.516;2022-07-29T00:31:25;6.23;;;5.70;;
7761;SDS011;3925;48.636;9.516;2022-07-29T00:33:52;5.87;;;5.37;;
7761;SDS011;3925;48.636;9.516;2022-07-29T00:36:19;5.60;;;5.30;;
7761;SDS011;3925;48.636;9.516;2022-07-29T00:38:45;6.80;;;5.30;;
7761;SDS011;3925;48.636;9.516;2022-07-29T00:41:12;5.70;;;5.20;;
7761;SDS011;3925;48.636;9.516;2022-07-29T00:43:41;5.03;;;4.53;;
7761;SDS011;3925;48.636;9.516;2022-07-29T00:46:08;7.00;;;4.27;;
7761;SDS011;3925;48.636;9.516;2022-07-29T00:48:35;5.10;;;4.70;;
7761;SDS011;3925;48.636;9.516;2022-07-29T00:51:02;5.17;;;4.77;;
7761;SDS011;3925;48.636;9.516;2022-07-29T00:53:30;3.90;;;3.60;;
7761;SDS011;3925;48.636;9.516;2022-07-29T00:55:58;4.47;;;4.07;;
7761;SDS011;3925;48.636;9.516;2022-07-29T00:58:25;4.70;;;4.40;;
7761;SDS011;3925;48.636;9.516;2022-07-29T01:00:54;4.83;;;4.43;;
7761;SDS011;3925;48.636;9.516;2022-07-29T01:03:21;5.07;;;4.67;;
7761;SDS011;3925;48.636;9.516;2022-07-29T01:05:48;4.30;;;4.00;;
7761;SDS011;3925;48.636;9.516;2022-07-29T01:08:15;5.47;;;4.70;;
7761;SDS011;3925;48.636;9.516;2022-07-29T01:10:43;4.87;;;4.43;;
7761;SDS011;3925;48.636;9.516;2022-07-29T01:13:11;4.77;;;4.37;;
7761;SDS011;3925;48.636;9.516;2022-07-29T01:15:42;4.70;;;4.30;;
7761;SDS011;3925;48.636;9.516;2022-07-29T01:18:16;4.40;;;4.10;;
7761;SDS011;3925;48.636;9.516;2022-07-29T01:23:54;4.93;;;4.53;;
7761;SDS011;3925;48.636;9.516;2022-07-29T01:26:45;4.63;;;4.33;;
7761;SDS011;3925;48.636;9.516;2022-07-29T01:29:28;4.17;;;3.87;;
7761;SDS011;3925;48.636;9.516;2022-07-29T01:31:58;5.03;;;4.63;;
7761;SDS011;3925;48.636;9.516;2022-07-29T01:34:31;3.90;;;3.60;;
7761;SDS011;3925;48.636;9.516;2022-07-29T01:37:09;3.50;;;3.20;;
7761;SDS011;3925;48.636;9.516;2022-07-29T01:39:46;4.87;;;3.80;;
7761;SDS011;3925;48.636;9.516;2022-07-29T01:42:20;4.07;;;3.83;;
7761;SDS011;3925;48.636;9.516;2022-07-29T01:44:56;3.10;;;2.90;;
7761;SDS011;3925;48.636;9.516;2022-07-29T01:47:25;3.27;;;3.07;;
7761;SDS011;3925;48.636;9.516;2022-07-29T01:49:58;4.00;;;3.70;;
7761;SDS011;3925;48.636;9.516;2022-07-29T01:52:27;3.77;;;3.47;;
7761;SDS011;3925;48.636;9.516;2022-07-29T01:55:02;4.10;;;3.80;;
7761;SDS011;3925;48.636;9.516;2022-07-29T01:57:33;5.20;;;4.73;;
7761;SDS011;3925;48.636;9.516;2022-07-29T02:00:04;5.00;;;4.27;;
7761;SDS011;3925;48.636;9.516;2022-07-29T02:02:32;5.10;;;4.70;;
7761;SDS011;3925;48.636;9.516;2022-07-29T02:05:01;4.97;;;4.57;;
7761;SDS011;3925;48.636;9.516;2022-07-29T02:07:31;6.50;;;6.00;;
7761;SDS011;3925;48.636;9.516;2022-07-29T02:10:00;5.50;;;5.03;;
7761;SDS011;3925;48.636;9.516;2022-07-29T02:12:30;5.30;;;4.80;;
7761;SDS011;3925;48.636;9.516;2022-07-29T02:14:59;6.10;;;5.70;;
7761;SDS011;3925;48.636;9.516;2022-07-29T02:17:31;5.20;;;4.90;;
7761;SDS011;3925;48.636;9.516;2022-07-29T02:20:02;5.27;;;4.83;;
7761;SDS011;3925;48.636;9.516;2022-07-29T02:22:31;5.50;;;5.00;;
7761;SDS011;3925;48.636;9.516;2022-07-29T02:25:00;5.00;;;4.70;;
7761;SDS011;3925;48.636;9.516;2022-07-29T02:27:28;5.50;;;5.00;;
7761;SDS011;3925;48.636;9.516;2022-07-29T02:29:55;5.83;;;5.43;;
7761;SDS011;3925;48.636;9.516;2022-07-29T02:32:24;5.50;;;5.00;;
7761;SDS011;3925;48.636;9.516;2022-07-29T02:34:54;5.83;;;5.30;;
7761;SDS011;3925;48.636;9.516;2022-07-29T02:37:22;5.80;;;5.30;;
7761;SDS011;3925;48.636;9.516;2022-07-29T02:39:50;6.07;;;5.60;;
7761;SDS011;3925;48.636;9.516;2022-07-29T02:42:20;4.70;;;4.40;;
7761;SDS011;3925;48.636;9.516;2022-07-29T02:44:50;7.40;;;5.10;;
7761;SDS011;3925;48.636;9.516;2022-07-29T02:47:18;5.53;;;5.13;;
7761;SDS011;3925;48.636;9.516;2022-07-29T02:49:49;6.87;;;6.10;;
7761;SDS011;3925;48.636;9.516;2022-07-29T02:52:24;5.00;;;4.70;;
7761;SDS011;3925;48.636;9.516;2022-07-29T02:54:55;6.10;;;5.70;;
7761;SDS011;3925;48.636;9.516;2022-07-29T02:57:27;5.97;;;5.37;;
7761;SDS011;3925;48.636;9.516;2022-07-29T02:59:58;5.77;;;5.23;;
7761;SDS011;3925;48.636;9.516;2022-07-29T03:02:29;5.30;;;4.30;;
7761;SDS011;3925;48.636;9.516;2022-07-29T03:05:00;6.53;;;6.03;;
7761;SDS011;3925;48.636;9.516;2022-07-29T03:07:30;6.80;;;6.30;;
7761;SDS011;3925;48.636;9.516;2022-07-29T03:09:58;5.83;;;5.43;;
7761;SDS011;3925;48.636;9.516;2022-07-29T03:12:26;6.17;;;5.67;;
7761;SDS011;3925;48.636;9.516;2022-07-29T03:14:54;7.07;;;6.30;;
7761;SDS011;3925;48.636;9.516;2022-07-29T03:17:22;6.53;;;6.03;;
7761;SDS011;3925;48.636;9.516;2022-07-29T03:19:50;6.30;;;5.80;;
7761;SDS011;3925;48.636;9.516;2022-07-29T03:22:17;7.13;;;6.23;;
7761;SDS011;3925;48.636;9.516;2022-07-29T03:24:45;5.80;;;5.40;;
7761;SDS011;3925;48.636;9.516;2022-07-29T03:27:12;7.00;;;6.50;;
7761;SDS011;3925;48.636;9.516;2022-07-29T03:29:39;6.60;;;6.10;;
7761;SDS011;3925;48.636;9.516;2022-07-29T03:32:06;6.20;;;5.70;;
7761;SDS011;3925;48.636;9.516;2022-07-29T03:34:33;6.93;;;6.40;;
7761;SDS011;3925;48.636;9.516;2022-07-29T03:37:00;7.50;;;6.73;;
7761;SDS011;3925;48.636;9.516;2022-07-29T03:39:29;7.20;;;6.60;;
7761;SDS011;3925;48.636;9.516;2022-07-29T03:42:02;6.40;;;5.90;;
7761;SDS011;3925;48.636;9.516;2022-07-29T03:44:31;6.70;;;6.10;;
7761;SDS011;3925;48.636;9.516;2022-07-29T03:46:59;6.63;;;5.93;;
7761;SDS011;3925;48.636;9.516;2022-07-29T03:49:28;6.20;;;5.70;;
7761;SDS011;3925;48.636;9.516;2022-07-29T03:51:57;6.00;;;5.50;;
7761;SDS011;3925;48.636;9.516;2022-07-29T03:54:26;6.50;;;6.00;;
7761;SDS011;3925;48.636;9.516;2022-07-29T03:56:53;7.43;;;5.50;;
7761;SDS011;3925;48.636;9.516;2022-07-29T03:59:23;6.90;;;6.40;;
7761;SDS011;3925;48.636;9.516;2022-07-29T04:01:50;6.73;;;5.80;;
7761;SDS011;3925;48.636;9.516;2022-07-29T04:04:17;5.87;;;5.37;;
7761;SDS011;3925;48.636;9.516;2022-07-29T04:06:45;5.90;;;5.50;;
7761;SDS011;3925;48.636;9.516;2022-07-29T04:09:12;6.80;;;6.23;;
7761;SDS011;3925;48.636;9.516;2022-07-29T04:11:40;7.60;;;6.97;;
7761;SDS011;3925;48.636;9.516;2022-07-29T04:14:07;6.37;;;5.97;;
7761;SDS011;3925;48.636;9.516;2022-07-29T04:16:35;7.13;;;6.53;;
7761;SDS011;3925;48.636;9.516;2022-07-29T04:19:02;5.60;;;5.20;;
7761;SDS011;3925;48.636;9.516;2022-07-29T04:21:29;6.90;;;6.40;;
7761;SDS011;3925;48.636;9.516;2022-07-29T04:23:56;7.57;;;6.50;;
7761;SDS011;3925;48.636;9.516;2022-07-29T04:26:23;7.40;;;6.80;;
7761;SDS011;3925;48.636;9.516;2022-07-29T04:28:50;7.37;;;6.53;;
7761;SDS011;3925;48.636;9.516;2022-07-29T04:31:17;7.03;;;6.53;;
7761;SDS011;3925;48.636;9.516;2022-07-29T04:33:45;6.77;;;6.13;;
7761;SDS011;3925;48.636;9.516;2022-07-29T04:36:12;7.43;;;6.30;;
7761;SDS011;3925;48.636;9.516;2022-07-29T04:38:39;6.40;;;5.77;;
7761;SDS011;3925;48.636;9.516;2022-07-29T04:41:06;5.90;;;5.37;;
7761;SDS011;3925;48.636;9.516;2022-07-29T04:43:33;5.60;;;5.10;;
7761;SDS011;3925;48.636;9.516;2022-07-29T04:46:01;6.40;;;5.73;;
7761;SDS011;3925;48.636;9.516;2022-07-29T04:48:28;8.43;;;6.17;;
7761;SDS011;3925;48.636;9.516;2022-07-29T04:50:56;6.00;;;5.53;;
7761;SDS011;3925;48.636;9.516;2022-07-29T04:53:23;6.43;;;5.70;;
7761;SDS011;3925;48.636;9.516;2022-07-29T04:55:50;6.27;;;5.80;;
7761;SDS011;3925;48.636;9.516;2022-07-29T04:58:17;5.63;;;5.13;;
7761;SDS011;3925;48.636;9.516;2022-07-29T05:00:44;5.07;;;4.77;;
7761;SDS011;3925;48.636;9.516;2022-07-29T05:03:11;7.93;;;5.40;;
7761;SDS011;3925;48.636;9.516;2022-07-29T05:05:38;4.97;;;4.57;;
7761;SDS011;3925;48.636;9.516;2022-07-29T05:08:07;5.33;;;4.80;;
7761;SDS011;3925;48.636;9.516;2022-07-29T05:10:34;5.10;;;4.60;;
7761;SDS011;3925;48.636;9.516;2022-07-29T05:13:03;4.53;;;4.20;;
7761;SDS011;3925;48.636;9.516;2022-07-29T05:15:30;4.67;;;4.27;;
7761;SDS011;3925;48.636;9.516;2022-07-29T05:17:57;6.20;;;4.60;;
7761;SDS011;3925;48.636;9.516;2022-07-29T05:20:24;5.40;;;4.30;;
7761;SDS011;3925;48.636;9.516;2022-07-29T05:22:53;5.03;;;4.63;;
7761;SDS011;3925;48.636;9.516;2022-07-29T05:25:21;6.00;;;4.50;;
7761;SDS011;3925;48.636;9.516;2022-07-29T05:27:48;8.93;;;5.13;;
7761;SDS011;3925;48.636;9.516;2022-07-29T05:30:15;4.70;;;4.30;;
7761;SDS011;3925;48.636;9.516;2022-07-29T05:32:42;5.23;;;4.30;;
7761;SDS011;3925;48.636;9.516;2022-07-29T05:35:09;4.37;;;3.97;;
7761;SDS011;3925;48.636;9.516;2022-07-29T05:37:37;4.13;;;3.83;;
7761;SDS011;3925;48.636;9.516;2022-07-29T05:40:04;4.43;;;3.50;;
7761;SDS011;3925;48.636;9.516;2022-07-29T05:42:33;4.67;;;3.60;;
7761;SDS011;3925;48.636;9.516;2022-07-29T05:45:00;3.20;;;2.90;;
7761;SDS011;3925;48.636;9.516;2022-07-29T05:47:28;3.27;;;3.00;;
7761;SDS011;3925;48.636;9.516;2022-07-29T05:49:55;9.13;;;4.13;;
7761;SDS011;3925;48.636;9.516;2022-07-29T05:52:22;3.67;;;3.37;;
7761;SDS011;3925;48.636;9.516;2022-07-29T05:54:50;6.37;;;3.67;;
7761;SDS011;3925;48.636;9.516;2022-07-29T05:57:17;4.70;;;4.10;;
7761;SDS011;3925;48.636;9.516;2022-07-29T05:59:46;4.37;;;3.97;;
7761;SDS011;3925;48.636;9.516;2022-07-29T06:02:13;3.40;;;3.10;;
7761;SDS011;3925;48.636;9.516;2022-07-29T06:04:40;3.53;;;3.10;;
7761;SDS011;3925;48.636;9.516;2022-07-29T06:07:07;3.27;;;3.00;;
7761;SDS011;3925;48.636;9.516;2022-07-29T06:09:34;3.50;;;3.20;;
7761;SDS011;3925;48.636;9.516;2022-07-29T06:12:01;4.43;;;3.03;;
7761;SDS011;3925;48.636;9.516;2022-07-29T06:14:28;3.90;;;3.17;;
7761;SDS011;3925;48.636;9.516;2022-07-29T06:16:57;4.27;;;2.90;;
7761;SDS011;3925;48.636;9.516;2022-07-29T06:19:24;3.57;;;3.27;;
7761;SDS011;3925;48.636;9.516;2022-07-29T06:21:51;3.23;;;2.80;;
7761;SDS011;3925;48.636;9.516;2022-07-29T06:24:17;3.50;;;3.30;;
7761;SDS011;3925;48.636;9.516;2022-07-29T06:26:44;4.70;;;2.63;;
7761;SDS011;3925;48.636;9.516;2022-07-29T06:29:11;2.93;;;2.73;;
7761;SDS011;3925;48.636;9.516;2022-07-29T06:31:38;3.20;;;2.70;;
7761;SDS011;3925;48.636;9.516;2022-07-29T06:34:07;2.70;;;2.43;;
7761;SDS011;3925;48.636;9.516;2022-07-29T06:36:34;5.60;;;2.33;;
7761;SDS011;3925;48.636;9.516;2022-07-29T06:39:03;2.83;;;2.40;;
7761;SDS011;3925;48.636;9.516;2022-07-29T06:41:31;3.30;;;2.27;;
7761;SDS011;3925;48.636;9.516;2022-07-29T06:43:58;2.83;;;2.30;;
7761;SDS011;3925;48.636;9.516;2022-07-29T06:46:25;3.03;;;2.63;;
7761;SDS011;3925;48.636;9.516;2022-07-29T06:48:52;2.07;;;1.87;;
7761;SDS011;3925;48.636;9.516;2022-07-29T06:51:21;2.47;;;2.37;;
7761;SDS011;3925;48.636;9.516;2022-07-29T06:53:48;2.43;;;2.30;;
7761;SDS011;3925;48.636;9.516;2022-07-29T06:56:16;2.53;;;2.40;;
7761;SDS011;3925;48.636;9.516;2022-07-29T06:58:43;4.70;;;2.70;;
7761;SDS011;3925;48.636;9.516;2022-07-29T07:01:10;4.93;;;2.87;;
7761;SDS011;3925;48.636;9.516;2022-07-29T07:03:37;2.67;;;2.47;;
7761;SDS011;3925;48.636;9.516;2022-07-29T07:06:04;3.90;;;2.23;;
7761;SDS011;3925;48.636;9.516;2022-07-29T07:08:32;2.57;;;2.30;;
7761;SDS011;3925;48.636;9.516;2022-07-29T07:10:59;3.13;;;2.27;;
7761;SDS011;3925;48.636;9.516;2022-07-29T07:13:26;2.20;;;2.10;;
7761;SDS011;3925;48.636;9.516;2022-07-29T07:15:59;2.57;;;2.37;;
7761;SDS011;3925;48.636;9.516;2022-07-29T07:18:26;2.60;;;2.40;;
7761;SDS011;3925;48.636;9.516;2022-07-29T07:20:53;2.20;;;2.10;;
7761;SDS011;3925;48.636;9.516;2022-07-29T07:23:21;1.80;;;1.70;;
7761;SDS011;3925;48.636;9.516;2022-07-29T07:25:49;1.90;;;1.80;;
7761;SDS011;3925;48.636;9.516;2022-07-29T07:28:16;2.43;;;2.20;;
7761;SDS011;3925;48.636;9.516;2022-07-29T07:30:44;2.00;;;1.90;;
7761;SDS011;3925;48.636;9.516;2022-07-29T07:33:11;2.07;;;1.97;;
7761;SDS011;3925;48.636;9.516;2022-07-29T07:35:39;2.03;;;1.83;;
7761;SDS011;3925;48.636;9.516;2022-07-29T07:38:06;3.60;;;2.10;;
7761;SDS011;3925;48.636;9.516;2022-07-29T07:40:33;4.03;;;2.27;;
7761;SDS011;3925;48.636;9.516;2022-07-29T07:43:01;2.20;;;2.00;;
7761;SDS011;3925;48.636;9.516;2022-07-29T07:45:28;3.13;;;2.00;;
7761;SDS011;3925;48.636;9.516;2022-07-29T07:47:57;1.97;;;1.73;;
7761;SDS011;3925;48.636;9.516;2022-07-29T07:50:24;3.07;;;2.87;;
7761;SDS011;3925;48.636;9.516;2022-07-29T07:52:52;2.70;;;2.50;;
7761;SDS011;3925;48.636;9.516;2022-07-29T07:55:22;3.80;;;2.50;;
7761;SDS011;3925;48.636;9.516;2022-07-29T07:57:50;2.90;;;2.53;;
7761;SDS011;3925;48.636;9.516;2022-07-29T08:00:18;2.20;;;2.10;;
7761;SDS011;3925;48.636;9.516;2022-07-29T08:02:46;2.60;;;2.40;;
7761;SDS011;3925;48.636;9.516;2022-07-29T08:05:13;2.03;;;1.83;;
7761;SDS011;3925;48.636;9.516;2022-07-29T08:07:42;2.83;;;2.40;;
7761;SDS011;3925;48.636;9.516;2022-07-29T08:10:11;1.87;;;1.77;;
7761;SDS011;3925;48.636;9.516;2022-07-29T08:12:38;2.17;;;2.07;;
7761;SDS011;3925;48.636;9.516;2022-07-29T08:15:05;2.63;;;2.33;;
7761;SDS011;3925;48.636;9.516;2022-07-29T08:17:35;2.97;;;2.10;;
7761;SDS011;3925;48.636;9.516;2022-07-29T08:20:02;2.53;;;2.17;;
7761;SDS011;3925;48.636;9.516;2022-07-29T08:22:29;2.93;;;1.70;;
7761;SDS011;3925;48.636;9.516;2022-07-29T08:24:56;2.63;;;2.30;;
7761;SDS011;3925;48.636;9.516;2022-07-29T08:27:23;2.40;;;2.20;;
7761;SDS011;3925;48.636;9.516;2022-07-29T08:29:51;1.83;;;1.73;;
7761;SDS011;3925;48.636;9.516;2022-07-29T08:32:18;2.67;;;2.57;;
7761;SDS011;3925;48.636;9.516;2022-07-29T08:34:46;4.80;;;2.10;;
7761;SDS011;3925;48.636;9.516;2022-07-29T08:37:13;3.00;;;1.80;;
7761;SDS011;3925;48.636;9.516;2022-07-29T08:39:40;2.80;;;2.40;;
7761;SDS011;3925;48.636;9.516;2022-07-29T08:42:07;3.43;;;2.30;;
7761;SDS011;3925;48.636;9.516;2022-07-29T08:44:34;3.00;;;2.33;;
7761;SDS011;3925;48.636;9.516;2022-07-29T08:47:02;2.80;;;2.60;;
7761;SDS011;3925;48.636;9.516;2022-07-29T08:49:29;3.17;;;2.17;;
7761;SDS011;3925;48.636;9.516;2022-07-29T08:51:58;2.77;;;2.57;;
7761;SDS011;3925;48.636;9.516;2022-07-29T08:54:26;2.50;;;2.40;;
7761;SDS011;3925;48.636;9.516;2022-07-29T08:56:54;2.60;;;2.40;;
7761;SDS011;3925;48.636;9.516;2022-07-29T08:59:22;3.33;;;2.97;;
7761;SDS011;3925;48.636;9.516;2022-07-29T09:01:52;2.23;;;2.10;;
7761;SDS011;3925;48.636;9.516;2022-07-29T09:04:20;2.77;;;2.40;;
7761;SDS011;3925;48.636;9.516;2022-07-29T09:06:48;2.60;;;2.40;;
7761;SDS011;3925;48.636;9.516;2022-07-29T09:09:19;3.03;;;2.73;;
7761;SDS011;3925;48.636;9.516;2022-07-29T09:11:46;3.30;;;2.50;;
7761;SDS011;3925;48.636;9.516;2022-07-29T09:14:13;4.33;;;2.43;;
7761;SDS011;3925;48.636;9.516;2022-07-29T09:16:45;2.43;;;2.23;;
7761;SDS011;3925;48.636;9.516;2022-07-29T09:19:23;3.27;;;2.83;;
7761;SDS011;3925;48.636;9.516;2022-07-29T09:21:51;3.03;;;2.70;;
7761;SDS011;3925;48.636;9.516;2022-07-29T09:24:27;3.73;;;2.73;;
7761;SDS011;3925;48.636;9.516;2022-07-29T09:27:06;2.63;;;2.43;;
7761;SDS011;3925;48.636;9.516;2022-07-29T09:29:35;4.53;;;3.00;;
7761;SDS011;3925;48.636;9.516;2022-07-29T09:32:05;2.53;;;2.33;;
7761;SDS011;3925;48.636;9.516;2022-07-29T09:34:34;2.37;;;2.27;;
7761;SDS011;3925;48.636;9.516;2022-07-29T09:37:01;3.40;;;2.40;;
7761;SDS011;3925;48.636;9.516;2022-07-29T09:39:32;4.33;;;2.43;;
7761;SDS011;3925;48.636;9.516;2022-07-29T09:42:00;5.27;;;3.13;;
7761;SDS011;3925;48.636;9.516;2022-07-29T09:44:40;3.00;;;2.80;;
7761;SDS011;3925;48.636;9.516;2022-07-29T09:47:09;4.80;;;3.30;;
7761;SDS011;3925;48.636;9.516;2022-07-29T09:49:36;2.60;;;2.40;;
7761;SDS011;3925;48.636;9.516;2022-07-29T09:52:17;2.70;;;2.50;;
7761;SDS011;3925;48.636;9.516;2022-07-29T09:54:45;3.03;;;2.80;;
7761;SDS011;3925;48.636;9.516;2022-07-29T09:57:22;3.13;;;2.93;;
7761;SDS011;3925;48.636;9.516;2022-07-29T09:59:57;3.00;;;2.77;;
7761;SDS011;3925;48.636;9.516;2022-07-29T10:02:29;2.83;;;2.63;;
7761;SDS011;3925;48.636;9.516;2022-07-29T10:04:57;8.10;;;2.93;;
7761;SDS011;3925;48.636;9.516;2022-07-29T10:07:25;2.90;;;2.47;;
7761;SDS011;3925;48.636;9.516;2022-07-29T10:09:54;4.37;;;2.80;;
7761;SDS011;3925;48.636;9.516;2022-07-29T10:12:23;2.80;;;2.60;;
7761;SDS011;3925;48.636;9.516;2022-07-29T10:14:50;4.40;;;3.03;;
7761;SDS011;3925;48.636;9.516;2022-07-29T10:17:18;4.17;;;3.17;;
7761;SDS011;3925;48.636;9.516;2022-07-29T10:19:46;3.10;;;2.90;;
7761;SDS011;3925;48.636;9.516;2022-07-29T10:22:15;3.47;;;3.17;;
7761;SDS011;3925;48.636;9.516;2022-07-29T10:24:42;2.80;;;2.60;;
7761;SDS011;3925;48.636;9.516;2022-07-29T10:27:11;3.17;;;2.87;;
7761;SDS011;3925;48.636;9.516;2022-07-29T10:29:38;2.87;;;2.67;;
7761;SDS011;3925;48.636;9.516;2022-07-29T10:32:16;3.70;;;3.00;;
7761;SDS011;3925;48.636;9.516;2022-07-29T10:37:56;4.03;;;3.27;;
7761;SDS011;3925;48.636;9.516;2022-07-29T10:40:51;3.57;;;3.10;;
7761;SDS011;3925;48.636;9.516;2022-07-29T10:43:44;3.57;;;3.07;;
7761;SDS011;3925;48.636;9.516;2022-07-29T10:46:13;3.20;;;2.90;;
7761;SDS011;3925;48.636;9.516;2022-07-29T10:54:35;3.57;;;3.27;;
7761;SDS011;3925;48.636;9.516;2022-07-29T11:02:54;4.13;;;3.70;;
7761;SDS011;3925;48.636;9.516;2022-07-29T11:05:23;4.20;;;3.80;;
7761;SDS011;3925;48.636;9.516;2022-07-29T11:10:46;4.80;;;4.10;;
7761;SDS011;3925;48.636;9.516;2022-07-29T11:16:17;5.67;;;4.00;;
7761;SDS011;3925;48.636;9.516;2022-07-29T11:21:48;4.10;;;3.80;;
7761;SDS011;3925;48.636;9.516;2022-07-29T11:24:19;4.37;;;4.07;;
7761;SDS011;3925;48.636;9.516;2022-07-29T11:29:35;4.17;;;3.87;;
7761;SDS011;3925;48.636;9.516;2022-07-29T11:32:10;4.73;;;3.80;;
7761;SDS011;3925;48.636;9.516;2022-07-29T11:34:39;4.37;;;4.07;;
7761;SDS011;3925;48.636;9.516;2022-07-29T11:37:22;3.47;;;3.27;;
7761;SDS011;3925;48.636;9.516;2022-07-29T11:40:09;4.40;;;4.00;;
7761;SDS011;3925;48.636;9.516;2022-07-29T11:42:47;4.40;;;4.00;;
7761;SDS011;3925;48.636;9.516;2022-07-29T11:45:19;4.27;;;3.97;;
7761;SDS011;3925;48.636;9.516;2022-07-29T11:47:55;4.10;;;3.80;;
7761;SDS011;3925;48.636;9.516;2022-07-29T11:50:31;4.40;;;3.60;;
7761;SDS011;3925;48.636;9.516;2022-07-29T11:53:00;4.93;;;4.50;;
7761;SDS011;3925;48.636;9.516;2022-07-29T11:55:29;4.60;;;3.47;;
7761;SDS011;3925;48.636;9.516;2022-07-29T11:58:00;2.77;;;2.57;;
7761;SDS011;3925;48.636;9.516;2022-07-29T12:00:30;2.60;;;2.20;;
7761;SDS011;3925;48.636;9.516;2022-07-29T12:03:04;2.50;;;2.40;;
7761;SDS011;3925;48.636;9.516;2022-07-29T12:05:33;3.10;;;2.70;;
7761;SDS011;3925;48.636;9.516;2022-07-29T12:08:10;3.30;;;3.00;;
7761;SDS011;3925;48.636;9.516;2022-07-29T12:10:39;2.90;;;2.70;;
7761;SDS011;3925;48.636;9.516;2022-07-29T12:13:07;2.70;;;2.50;;
7761;SDS011;3925;48.636;9.516;2022-07-29T12:15:34;3.10;;;2.57;;
7761;SDS011;3925;48.636;9.516;2022-07-29T12:18:13;5.87;;;2.90;;
7761;SDS011;3925;48.636;9.516;2022-07-29T12:20:40;2.90;;;2.23;;
7761;SDS011;3925;48.636;9.516;2022-07-29T12:23:08;2.80;;;2.60;;
7761;SDS011;3925;48.636;9.516;2022-07-29T12:25:37;8.43;;;3.97;;
7761;SDS011;3925;48.636;9.516;2022-07-29T12:28:05;2.60;;;2.40;;
7761;SDS011;3925;48.636;9.516;2022-07-29T12:30:34;4.97;;;2.90;;
7761;SDS011;3925;48.636;9.516;2022-07-29T12:33:10;2.83;;;2.40;;
7761;SDS011;3925;48.636;9.516;2022-07-29T12:35:39;3.37;;;2.37;;
7761;SDS011;3925;48.636;9.516;2022-07-29T12:38:09;2.27;;;2.17;;
7761;SDS011;3925;48.636;9.516;2022-07-29T12:40:37;2.30;;;2.10;;
7761;SDS011;3925;48.636;9.516;2022-07-29T12:43:04;3.13;;;2.33;;
7761;SDS011;3925;48.636;9.516;2022-07-29T12:45:32;2.10;;;2.00;;
7761;SDS011;3925;48.636;9.516;2022-07-29T12:48:00;2.27;;;2.17;;
7761;SDS011;3925;48.636;9.516;2022-07-29T12:50:29;2.30;;;2.20;;
7761;SDS011;3925;48.636;9.516;2022-07-29T12:53:07;2.57;;;2.37;;
7761;SDS011;3925;48.636;9.516;2022-07-29T12:55:38;3.00;;;2.70;;
7761;SDS011;3925;48.636;9.516;2022-07-29T12:58:08;2.80;;;2.60;;
7761;SDS011;3925;48.636;9.516;2022-07-29T13:00:35;3.67;;;2.90;;
7761;SDS011;3925;48.636;9.516;2022-07-29T13:03:02;2.90;;;2.50;;
7761;SDS011;3925;48.636;9.516;2022-07-29T13:05:41;3.20;;;3.00;;
7761;SDS011;3925;48.636;9.516;2022-07-29T13:08:10;3.27;;;2.90;;
7761;SDS011;3925;48.636;9.516;2022-07-29T13:10:37;4.03;;;3.27;;
7761;SDS011;3925;48.636;9.516;2022-07-29T13:13:05;2.90;;;2.57;;
7761;SDS011;3925;48.636;9.516;2022-07-29T13:15:33;2.90;;;2.70;;
7761;SDS011;3925;48.636;9.516;2022-07-29T13:18:02;3.17;;;2.80;;
7761;SDS011;3925;48.636;9.516;2022-07-29T13:20:30;4.50;;;4.10;;
7761;SDS011;3925;48.636;9.516;2022-07-29T13:22:59;3.70;;;3.40;;
7761;SDS011;3925;48.636;9.516;2022-07-29T13:25:27;3.90;;;3.50;;
7761;SDS011;3925;48.636;9.516;2022-07-29T13:27:57;3.63;;;3.33;;
7761;SDS011;3925;48.636;9.516;2022-07-29T13:30:24;4.77;;;4.37;;
7761;SDS011;3925;48.636;9.516;2022-07-29T13:32:51;6.20;;;4.50;;
7761;SDS011;3925;48.636;9.516;2022-07-29T13:35:20;3.40;;;3.10;;
7761;SDS011;3925;48.636;9.516;2022-07-29T13:37:47;3.67;;;3.37;;
7761;SDS011;3925;48.636;9.516;2022-07-29T13:40:15;6.33;;;3.63;;
7761;SDS011;3925;48.636;9.516;2022-07-29T13:42:42;3.77;;;3.23;;
7761;SDS011;3925;48.636;9.516;2022-07-29T13:45:09;3.50;;;3.20;;
7761;SDS011;3925;48.636;9.516;2022-07-29T13:47:37;3.33;;;3.10;;
7761;SDS011;3925;48.636;9.516;2022-07-29T13:50:05;4.00;;;2.33;;
7761;SDS011;3925;48.636;9.516;2022-07-29T13:52:35;2.70;;;2.50;;
7761;SDS011;3925;48.636;9.516;2022-07-29T13:55:04;2.50;;;2.40;;
7761;SDS011;3925;48.636;9.516;2022-07-29T13:57:33;2.73;;;2.57;;
7761;SDS011;3925;48.636;9.516;2022-07-29T14:00:00;3.00;;;2.80;;
7761;SDS011;3925;48.636;9.516;2022-07-29T14:02:28;3.53;;;2.43;;
7761;SDS011;3925;48.636;9.516;2022-07-29T14:04:55;3.40;;;2.90;;
7761;SDS011;3925;48.636;9.516;2022-07-29T14:07:22;3.80;;;3.17;;
7761;SDS011;3925;48.636;9.516;2022-07-29T14:09:49;3.57;;;3.03;;
7761;SDS011;3925;48.636;9.516;2022-07-29T14:12:16;4.00;;;2.60;;
7761;SDS011;3925;48.636;9.516;2022-07-29T14:14:45;2.93;;;2.73;;
7761;SDS011;3925;48.636;9.516;2022-07-29T14:17:12;3.63;;;3.33;;
7761;SDS011;3925;48.636;9.516;2022-07-29T14:19:39;4.20;;;3.40;;
7761;SDS011;3925;48.636;9.516;2022-07-29T14:22:06;3.57;;;3.23;;
7761;SDS011;3925;48.636;9.516;2022-07-29T14:24:34;3.70;;;3.20;;
7761;SDS011;3925;48.636;9.516;2022-07-29T14:27:02;3.77;;;3.47;;
7761;SDS011;3925;48.636;9.516;2022-07-29T14:29:29;3.40;;;3.10;;
7761;SDS011;3925;48.636;9.516;2022-07-29T14:31:57;3.57;;;3.37;;
7761;SDS011;3925;48.636;9.516;2022-07-29T14:34:24;3.93;;;3.63;;
7761;SDS011;3925;48.636;9.516;2022-07-29T14:36:51;3.87;;;3.67;;
7761;SDS011;3925;48.636;9.516;2022-07-29T14:39:20;4.87;;;4.23;;
7761;SDS011;3925;48.636;9.516;2022-07-29T14:41:48;5.13;;;3.80;;
7761;SDS011;3925;48.636;9.516;2022-07-29T14:44:15;4.13;;;3.83;;
7761;SDS011;3925;48.636;9.516;2022-07-29T14:46:41;3.60;;;3.30;;
7761;SDS011;3925;48.636;9.516;2022-07-29T14:49:10;3.43;;;3.20;;
7761;SDS011;3925;48.636;9.516;2022-07-29T14:51:37;3.43;;;3.23;;
7761;SDS011;3925;48.636;9.516;2022-07-29T14:54:04;4.10;;;3.67;;
7761;SDS011;3925;48.636;9.516;2022-07-29T14:56:31;5.40;;;4.10;;
7761;SDS011;3925;48.636;9.516;2022-07-29T14:58:57;3.93;;;3.57;;
7761;SDS011;3925;48.636;9.516;2022-07-29T15:01:24;3.90;;;3.67;;
7761;SDS011;3925;48.636;9.516;2022-07-29T15:03:51;3.97;;;3.70;;
7761;SDS011;3925;48.636;9.516;2022-07-29T15:06:20;3.73;;;3.30;;
7761;SDS011;3925;48.636;9.516;2022-07-29T15:08:47;4.23;;;3.83;;
7761;SDS011;3925;48.636;9.516;2022-07-29T15:11:14;4.67;;;4.30;;
7761;SDS011;3925;48.636;9.516;2022-07-29T15:13:41;3.97;;;3.67;;
7761;SDS011;3925;48.636;9.516;2022-07-29T15:16:08;4.50;;;4.20;;
7761;SDS011;3925;48.636;9.516;2022-07-29T15:18:35;4.90;;;4.17;;
7761;SDS011;3925;48.636;9.516;2022-07-29T15:21:03;4.53;;;4.13;;
7761;SDS011;3925;48.636;9.516;2022-07-29T15:23:33;4.50;;;4.10;;
7761;SDS011;3925;48.636;9.516;2022-07-29T15:26:01;4.87;;;4.27;;
7761;SDS011;3925;48.636;9.516;2022-07-29T15:28:28;4.20;;;3.90;;
7761;SDS011;3925;48.636;9.516;2022-07-29T15:30:55;4.67;;;4.27;;
7761;SDS011;3925;48.636;9.516;2022-07-29T15:33:22;5.23;;;4.00;;
7761;SDS011;3925;48.636;9.516;2022-07-29T15:35:49;4.03;;;3.73;;
7761;SDS011;3925;48.636;9.516;2022-07-29T15:38:16;5.50;;;4.57;;
7761;SDS011;3925;48.636;9.516;2022-07-29T15:40:45;3.90;;;3.60;;
7761;SDS011;3925;48.636;9.516;2022-07-29T15:43:12;4.40;;;4.10;;
7761;SDS011;3925;48.636;9.516;2022-07-29T15:45:40;4.43;;;4.13;;
7761;SDS011;3925;48.636;9.516;2022-07-29T15:48:29;4.40;;;4.10;;
7761;SDS011;3925;48.636;9.516;2022-07-29T15:50:56;3.90;;;3.70;;
7761;SDS011;3925;48.636;9.516;2022-07-29T15:53:24;4.73;;;3.90;;
7761;SDS011;3925;48.636;9.516;2022-07-29T15:55:52;4.30;;;4.00;;